createdAt,value
2019-04-01T00:01:24.369Z,20.40
2019-04-01T00:03:54.182Z,20.40
2019-04-01T00:06:24.022Z,20.50
2019-04-01T00:08:53.897Z,20.50
2019-04-01T00:11:23.588Z,20.60
2019-04-01T00:13:53.371Z,20.60
2019-04-01T00:16:23.294Z,20.70
2019-04-01T00:19:03.073Z,20.80
2019-04-01T00:21:24.569Z,20.80
2019-04-01T00:23:54.342Z,20.90
2019-04-01T00:26:24.069Z,20.90
2019-04-01T00:28:53.954Z,20.90
2019-04-01T00:31:24.102Z,21.00
2019-04-01T00:33:53.890Z,20.90
2019-04-01T00:36:23.656Z,21.00
2019-04-01T00:38:53.405Z,20.90
2019-04-01T00:41:23.267Z,20.90
2019-04-01T00:43:54.293Z,20.90
2019-04-01T00:46:24.629Z,20.90
2019-04-01T00:48:54.433Z,20.90
2019-04-01T00:51:24.237Z,20.90
2019-04-01T00:53:54.023Z,20.90
2019-04-01T00:56:23.897Z,20.80
2019-04-01T00:58:53.601Z,20.80
2019-04-01T01:01:23.621Z,20.80
2019-04-01T01:03:54.425Z,20.80
2019-04-01T01:06:24.210Z,20.80
2019-04-01T01:08:54.071Z,20.70
2019-04-01T01:11:23.911Z,20.70
2019-04-01T01:13:53.690Z,20.70
2019-04-01T01:16:23.422Z,20.70
2019-04-01T01:18:53.278Z,20.60
2019-04-01T01:21:23.052Z,20.60
2019-04-01T01:23:52.813Z,20.60
2019-04-01T01:26:23.589Z,20.60
2019-04-01T01:28:53.360Z,20.50
2019-04-01T01:31:23.127Z,20.50
2019-04-01T01:33:53.049Z,20.50
2019-04-01T01:36:22.819Z,20.50
2019-04-01T01:38:52.656Z,20.50
2019-04-01T01:41:22.497Z,20.50
2019-04-01T01:43:52.227Z,20.40
2019-04-01T01:46:22.065Z,20.40
2019-04-01T01:48:51.905Z,20.40
2019-04-01T01:51:21.746Z,20.40
2019-04-01T01:53:51.437Z,20.40
2019-04-01T01:56:21.309Z,20.30
2019-04-01T01:58:51.099Z,20.30
2019-04-01T02:01:20.877Z,20.30
2019-04-01T02:03:50.732Z,20.40
2019-04-01T02:06:20.502Z,20.40
2019-04-01T02:08:50.240Z,20.50
2019-04-01T02:11:20.008Z,20.50
2019-04-01T02:13:49.867Z,20.60
2019-04-01T02:16:19.626Z,20.60
2019-04-01T02:18:50.575Z,20.70
2019-04-01T02:21:20.379Z,20.80
2019-04-01T02:23:50.154Z,20.80
2019-04-01T02:26:19.888Z,20.90
2019-04-01T02:28:49.853Z,20.90
2019-04-01T02:31:19.631Z,20.90
2019-04-01T02:33:49.391Z,20.90
2019-04-01T02:36:19.147Z,20.90
2019-04-01T02:38:48.955Z,20.90
2019-04-01T02:41:18.730Z,20.90
2019-04-01T02:43:48.468Z,20.90
2019-04-01T02:46:18.257Z,20.90
2019-04-01T02:48:48.194Z,20.90
2019-04-01T02:51:18.016Z,20.90
2019-04-01T02:53:47.873Z,20.90
2019-04-01T02:56:17.666Z,20.80
2019-04-01T02:58:48.502Z,20.80
2019-04-01T03:01:18.340Z,20.80
2019-04-01T03:03:48.206Z,20.70
2019-04-01T03:06:18.053Z,20.70
2019-04-01T03:08:47.779Z,20.70
2019-04-01T03:11:17.627Z,20.70
2019-04-01T03:13:47.410Z,20.70
2019-04-01T03:16:17.250Z,20.60
2019-04-01T03:18:47.092Z,20.60
2019-04-01T03:21:16.767Z,20.60
2019-04-01T03:23:46.535Z,20.50
2019-04-01T03:26:16.371Z,20.50
2019-04-01T03:28:46.238Z,20.50
2019-04-01T03:31:16.025Z,20.50
2019-04-01T03:33:45.923Z,20.50
2019-04-01T03:36:15.871Z,20.40
2019-04-01T03:38:46.032Z,20.40
2019-04-01T03:41:15.871Z,20.40
2019-04-01T03:43:45.601Z,20.40
2019-04-01T03:46:15.433Z,20.40
2019-04-01T03:48:45.198Z,20.30
2019-04-01T03:51:15.037Z,20.30
2019-04-01T03:53:44.805Z,20.30
2019-04-01T03:56:14.681Z,20.40
2019-04-01T03:58:44.445Z,20.40
2019-04-01T04:01:14.241Z,20.40
2019-04-01T04:03:44.030Z,20.50
2019-04-01T04:06:13.888Z,20.50
2019-04-01T04:08:43.661Z,20.60
2019-04-01T04:11:13.546Z,20.70
2019-04-01T04:13:43.298Z,20.70
2019-04-01T04:16:13.010Z,20.70
2019-04-01T04:18:42.770Z,20.80
2019-04-01T04:21:12.637Z,20.80
2019-04-01T04:23:42.479Z,20.90
2019-04-01T04:26:12.266Z,20.90
2019-04-01T04:28:42.126Z,20.90
2019-04-01T04:31:11.933Z,20.90
2019-04-01T04:33:41.886Z,20.90
2019-04-01T04:36:11.913Z,20.90
2019-04-01T04:38:42.128Z,20.90
2019-04-01T04:41:12.179Z,20.90
2019-04-01T04:43:41.966Z,20.90
2019-04-01T04:46:11.756Z,20.90
2019-04-01T04:48:41.790Z,20.90
2019-04-01T04:51:11.614Z,20.80
2019-04-01T04:53:41.426Z,20.80
2019-04-01T04:56:11.250Z,20.80
2019-04-01T04:58:41.062Z,20.80
2019-04-01T05:01:10.835Z,20.70
2019-04-01T05:03:40.759Z,20.70
2019-04-01T05:06:10.561Z,20.70
2019-04-01T05:08:40.402Z,20.70
2019-04-01T05:11:10.216Z,20.60
2019-04-01T05:13:40.203Z,20.60
2019-04-01T05:16:10.238Z,20.60
2019-04-01T05:18:40.061Z,20.60
2019-04-01T05:21:09.954Z,20.60
2019-04-01T05:23:40.085Z,20.60
2019-04-01T05:26:10.126Z,20.70
2019-04-01T05:28:39.991Z,20.70
2019-04-01T05:31:09.874Z,20.80
2019-04-01T05:33:39.735Z,20.80
2019-04-01T05:36:09.630Z,20.80
2019-04-01T05:38:39.525Z,20.90
2019-04-01T05:41:09.362Z,20.90
2019-04-01T05:43:39.811Z,21.00
2019-04-01T05:46:09.698Z,21.00
2019-04-01T05:48:39.615Z,21.10
2019-04-01T05:51:09.426Z,21.10
2019-04-01T05:53:39.225Z,21.10
2019-04-01T05:56:09.158Z,21.20
2019-04-01T05:58:38.926Z,21.10
2019-04-01T06:01:12.737Z,21.20
2019-04-01T06:03:42.550Z,21.20
2019-04-01T06:06:12.529Z,21.20
2019-04-01T06:08:42.999Z,21.20
2019-04-01T06:11:13.544Z,21.20
2019-04-01T06:13:43.470Z,21.20
2019-04-01T06:16:13.238Z,21.20
2019-04-01T06:18:43.110Z,21.20
2019-04-01T06:21:13.047Z,21.10
2019-04-01T06:23:42.831Z,21.10
2019-04-01T06:26:12.648Z,21.10
2019-04-01T06:28:42.417Z,21.10
2019-04-01T06:31:12.413Z,21.10
2019-04-01T06:33:42.306Z,21.00
2019-04-01T06:36:12.236Z,21.00
2019-04-01T06:38:42.137Z,21.00
2019-04-01T06:41:12.114Z,21.00
2019-04-01T06:43:41.962Z,21.00
2019-04-01T06:46:12.881Z,20.90
2019-04-01T06:48:42.807Z,20.90
2019-04-01T06:51:12.675Z,20.90
2019-04-01T06:53:43.109Z,20.90
2019-04-01T06:56:13.017Z,20.80
2019-04-01T06:58:42.798Z,20.80
2019-04-01T07:01:12.753Z,20.80
2019-04-01T07:03:42.829Z,20.80
2019-04-01T07:06:12.686Z,20.80
2019-04-01T07:08:42.537Z,20.70
2019-04-01T07:11:12.471Z,20.70
2019-04-01T07:13:42.327Z,20.70
2019-04-01T07:16:15.904Z,20.70
2019-04-01T07:18:43.622Z,20.70
2019-04-01T07:21:13.430Z,20.70
2019-04-01T07:23:43.289Z,20.60
2019-04-01T07:26:13.137Z,20.60
2019-04-01T07:28:42.906Z,20.60
2019-04-01T07:31:12.809Z,20.50
2019-04-01T07:33:42.652Z,20.50
2019-04-01T07:36:12.674Z,20.50
2019-04-01T07:38:54.461Z,20.50
2019-04-01T07:41:24.294Z,20.50
2019-04-01T07:43:54.186Z,20.50
2019-04-01T07:46:24.028Z,20.50
2019-04-01T07:48:53.977Z,20.50
2019-04-01T07:51:23.854Z,20.50
2019-04-01T07:53:53.642Z,20.40
2019-04-01T07:56:23.535Z,20.40
2019-04-01T07:58:53.404Z,20.40
2019-04-01T08:01:23.420Z,20.40
2019-04-01T08:03:53.393Z,20.40
2019-04-01T08:06:23.186Z,20.40
2019-04-01T08:08:52.946Z,20.40
2019-04-01T08:11:22.809Z,20.40
2019-04-01T08:13:52.677Z,20.40
2019-04-01T08:16:22.564Z,20.40
2019-04-01T08:18:52.510Z,20.40
2019-04-01T08:21:22.558Z,20.30
2019-04-01T08:23:52.306Z,20.30
2019-04-01T08:26:22.195Z,20.40
2019-04-01T08:28:52.157Z,20.40
2019-04-01T08:31:22.037Z,20.40
2019-04-01T08:33:51.806Z,20.50
2019-04-01T08:36:21.656Z,20.50
2019-04-01T08:38:51.476Z,20.60
2019-04-01T08:41:22.465Z,20.70
2019-04-01T08:43:52.342Z,20.80
2019-04-01T08:46:22.212Z,20.80
2019-04-01T08:48:52.077Z,20.90
2019-04-01T08:51:22.077Z,21.00
2019-04-01T08:53:51.817Z,21.00
2019-04-01T08:56:22.630Z,21.10
2019-04-01T08:58:52.487Z,21.10
2019-04-01T09:01:34.534Z,21.10
2019-04-01T09:03:53.950Z,21.10
2019-04-01T09:06:23.855Z,21.10
2019-04-01T09:08:53.758Z,21.10
2019-04-01T09:11:23.616Z,21.10
2019-04-01T09:13:54.019Z,21.10
2019-04-01T09:16:23.855Z,21.10
2019-04-01T09:18:53.644Z,21.10
2019-04-01T09:21:23.461Z,21.10
2019-04-01T09:23:53.353Z,21.00
2019-04-01T09:26:23.157Z,21.00
2019-04-01T09:28:53.141Z,21.00
2019-04-01T09:31:22.951Z,21.00
2019-04-01T09:33:53.999Z,21.00
2019-04-01T09:36:24.985Z,21.00
2019-04-01T09:38:54.842Z,21.00
2019-04-01T09:41:24.562Z,21.00
2019-04-01T09:43:54.455Z,21.00
2019-04-01T09:46:24.401Z,21.00
2019-04-01T09:48:54.282Z,21.00
2019-04-01T09:51:24.353Z,20.90
2019-04-01T09:53:54.116Z,20.90
2019-04-01T09:56:24.186Z,20.90
2019-04-01T09:58:54.210Z,20.90
2019-04-01T10:01:24.066Z,20.90
2019-04-01T10:03:53.905Z,20.90
2019-04-01T10:06:23.775Z,20.90
2019-04-01T10:08:53.694Z,20.90
2019-04-01T10:11:23.474Z,20.90
2019-04-01T10:13:53.357Z,20.90
2019-04-01T10:16:26.392Z,20.90
2019-04-01T10:18:54.873Z,20.80
2019-04-01T10:21:24.753Z,20.90
2019-04-01T10:23:54.727Z,20.90
2019-04-01T10:26:24.542Z,20.90
2019-04-01T10:28:54.487Z,20.90
2019-04-01T10:31:24.329Z,20.80
2019-04-01T10:33:54.229Z,20.80
2019-04-01T10:36:24.136Z,20.80
2019-04-01T10:38:54.044Z,20.80
2019-04-01T10:41:24.118Z,20.80
2019-04-01T10:43:53.901Z,20.80
2019-04-01T10:46:23.893Z,20.80
2019-04-01T10:48:53.787Z,20.80
2019-04-01T10:51:23.724Z,20.80
2019-04-01T10:53:53.703Z,20.80
2019-04-01T10:56:23.659Z,20.80
2019-04-01T10:58:53.732Z,20.80
2019-04-01T11:01:23.721Z,20.80
2019-04-01T11:03:53.639Z,20.70
2019-04-01T11:06:23.652Z,20.70
2019-04-01T11:08:53.605Z,20.70
2019-04-01T11:11:23.557Z,20.70
2019-04-01T11:13:54.079Z,20.70
2019-04-01T11:16:25.594Z,20.70
2019-04-01T11:18:58.069Z,20.70
2019-04-01T11:21:39.170Z,20.70
2019-04-01T11:24:09.064Z,20.70
2019-04-01T11:26:39.128Z,20.70
2019-04-01T11:29:09.082Z,20.70
2019-04-01T11:31:38.969Z,20.70
2019-04-01T11:34:08.975Z,20.70
2019-04-01T11:36:38.951Z,20.70
2019-04-01T11:39:09.024Z,20.70
2019-04-01T11:41:39.230Z,20.70
2019-04-01T11:44:09.348Z,20.70
2019-04-01T11:46:39.314Z,20.70
2019-04-01T11:49:09.206Z,20.70
2019-04-01T11:51:40.234Z,20.70
2019-04-01T11:54:10.570Z,20.70
2019-04-01T11:56:41.560Z,20.70
2019-04-01T11:59:11.776Z,20.70
2019-04-01T12:01:42.822Z,20.70
2019-04-01T12:04:12.907Z,20.70
2019-04-01T12:06:42.866Z,20.70
2019-04-01T12:09:12.635Z,20.70
2019-04-01T12:11:42.405Z,20.70
2019-04-01T12:14:12.344Z,20.70
2019-04-01T12:16:42.265Z,20.70
2019-04-01T12:19:12.286Z,20.70
2019-04-01T12:21:42.338Z,20.70
2019-04-01T12:24:12.158Z,20.70
2019-04-01T12:26:42.130Z,20.70
2019-04-01T12:29:12.538Z,20.70
2019-04-01T12:31:43.582Z,20.70
2019-04-01T12:34:13.550Z,20.70
2019-04-01T12:36:43.358Z,20.70
2019-04-01T12:39:13.278Z,20.70
2019-04-01T12:41:43.384Z,20.70
2019-04-01T12:44:13.326Z,20.70
2019-04-01T12:46:43.223Z,20.70
2019-04-01T12:49:13.541Z,20.70
2019-04-01T12:51:43.465Z,20.70
2019-04-01T12:54:13.282Z,20.70
2019-04-01T12:56:43.259Z,20.70
2019-04-01T12:59:13.234Z,20.70
2019-04-01T13:01:43.253Z,20.70
2019-04-01T13:04:13.120Z,20.70
2019-04-01T13:06:43.104Z,20.70
2019-04-01T13:09:12.983Z,20.70
2019-04-01T13:11:43.173Z,20.70
2019-04-01T13:14:13.838Z,20.70
2019-04-01T13:16:43.958Z,20.70
2019-04-01T13:19:13.997Z,20.70
2019-04-01T13:21:44.893Z,20.70
2019-04-01T13:24:14.789Z,20.70
2019-04-01T13:26:44.490Z,20.60
2019-04-01T13:29:14.418Z,20.70
2019-04-01T13:31:44.608Z,20.70
2019-04-01T13:34:14.595Z,20.70
2019-04-01T13:36:44.326Z,20.70
2019-04-01T13:39:14.420Z,20.70
2019-04-01T13:41:45.478Z,20.70
2019-04-01T13:44:15.681Z,20.70
2019-04-01T13:46:48.486Z,20.70
2019-04-01T13:49:17.239Z,20.70
2019-04-01T13:51:47.198Z,20.70
2019-04-01T13:54:17.238Z,20.70
2019-04-01T13:56:48.020Z,20.70
2019-04-01T13:59:17.806Z,20.70
2019-04-01T14:01:47.575Z,20.70
2019-04-01T14:04:17.390Z,20.70
2019-04-01T14:06:47.268Z,20.70
2019-04-01T14:09:17.237Z,20.70
2019-04-01T14:11:47.167Z,20.70
2019-04-01T14:14:17.100Z,20.70
2019-04-01T14:16:48.036Z,20.70
2019-04-01T14:19:17.983Z,20.70
2019-04-01T14:21:47.838Z,20.70
2019-04-01T14:24:17.813Z,20.70
2019-04-01T14:26:47.736Z,20.60
2019-04-01T14:29:17.598Z,20.60
2019-04-01T14:31:47.405Z,20.60
2019-04-01T14:34:23.516Z,20.60
2019-04-01T14:36:48.993Z,20.60
2019-04-01T14:39:18.822Z,20.60
2019-04-01T14:41:48.717Z,20.60
2019-04-01T14:44:18.711Z,20.50
2019-04-01T14:46:48.515Z,20.50
2019-04-01T14:49:18.489Z,20.50
2019-04-01T14:51:48.413Z,20.50
2019-04-01T14:54:20.716Z,20.50
2019-04-01T14:56:50.102Z,20.50
2019-04-01T14:59:19.957Z,20.50
2019-04-01T15:01:49.775Z,20.50
2019-04-01T15:04:19.735Z,20.50
2019-04-01T15:06:50.605Z,20.60
2019-04-01T15:09:23.312Z,20.60
2019-04-01T15:11:51.981Z,20.70
2019-04-01T15:14:22.005Z,20.70
2019-04-01T15:16:51.894Z,20.80
2019-04-01T15:19:21.874Z,20.90
2019-04-01T15:21:52.040Z,20.90
2019-04-01T15:24:22.259Z,21.00
2019-04-01T15:26:52.194Z,21.10
2019-04-01T15:29:22.014Z,21.10
2019-04-01T15:31:51.888Z,21.10
2019-04-01T15:34:21.725Z,21.20
2019-04-01T15:36:51.578Z,21.20
2019-04-01T15:39:21.426Z,21.30
2019-04-01T15:41:51.194Z,21.30
2019-04-01T15:44:22.778Z,21.40
2019-04-01T15:46:52.589Z,21.50
2019-04-01T15:49:22.430Z,21.50
2019-04-01T15:51:52.269Z,21.60
2019-04-01T15:54:22.230Z,21.60
2019-04-01T15:56:52.130Z,21.60
2019-04-01T15:59:22.104Z,21.70
2019-04-01T16:01:51.999Z,21.80
2019-04-01T16:04:21.831Z,21.80
2019-04-01T16:06:52.007Z,21.80
2019-04-01T16:09:23.062Z,21.90
2019-04-01T16:11:54.212Z,21.90
2019-04-01T16:14:24.320Z,21.90
2019-04-01T16:16:54.197Z,22.00
2019-04-01T16:19:24.055Z,22.00
2019-04-01T16:21:53.891Z,22.00
2019-04-01T16:24:24.839Z,22.00
2019-04-01T16:26:54.789Z,22.00
2019-04-01T16:29:25.537Z,22.00
2019-04-01T16:31:56.872Z,22.00
2019-04-01T16:34:27.121Z,22.00
2019-04-01T16:36:57.050Z,22.00
2019-04-01T16:39:27.192Z,22.00
2019-04-01T16:41:57.126Z,22.00
2019-04-01T16:44:27.000Z,22.00
2019-04-01T16:46:56.847Z,22.00
2019-04-01T16:49:26.822Z,22.00
2019-04-01T16:51:56.860Z,22.00
2019-04-01T16:54:26.625Z,22.00
2019-04-01T16:56:56.478Z,22.00
2019-04-01T16:59:26.259Z,21.90
2019-04-01T17:01:57.735Z,21.90
2019-04-01T17:04:28.263Z,21.90
2019-04-01T17:06:58.422Z,21.80
2019-04-01T17:09:28.346Z,21.80
2019-04-01T17:11:59.248Z,21.80
2019-04-01T17:14:29.393Z,21.70
2019-04-01T17:16:59.190Z,21.70
2019-04-01T17:19:29.151Z,21.70
2019-04-01T17:21:59.170Z,21.70
2019-04-01T17:24:29.184Z,21.60
2019-04-01T17:27:09.198Z,21.60
2019-04-01T17:29:39.287Z,21.60
2019-04-01T17:32:09.162Z,21.60
2019-04-01T17:34:39.269Z,21.70
2019-04-01T17:37:09.235Z,21.70
2019-04-01T17:39:39.337Z,21.80
2019-04-01T17:42:09.202Z,21.80
2019-04-01T17:44:39.025Z,21.90
2019-04-01T17:47:08.962Z,22.00
2019-04-01T17:49:38.749Z,22.00
2019-04-01T17:52:08.589Z,22.00
2019-04-01T17:54:40.045Z,22.00
2019-04-01T17:57:09.985Z,22.10
2019-04-01T17:59:39.879Z,22.10
2019-04-01T18:02:12.521Z,22.20
2019-04-01T18:04:42.550Z,22.20
2019-04-01T18:07:12.465Z,22.20
2019-04-01T18:09:42.518Z,22.20
2019-04-01T18:12:12.509Z,22.10
2019-04-01T18:14:42.563Z,22.10
2019-04-01T18:17:12.486Z,22.10
2019-04-01T18:19:42.768Z,22.10
2019-04-01T18:22:12.707Z,22.00
2019-04-01T18:24:42.702Z,22.00
2019-04-01T18:27:12.606Z,21.90
2019-04-01T18:29:42.526Z,21.90
2019-04-01T18:32:12.470Z,21.80
2019-04-01T18:34:42.271Z,21.70
2019-04-01T18:37:12.537Z,21.70
2019-04-01T18:39:48.458Z,21.60
2019-04-01T18:42:13.884Z,21.60
2019-04-01T18:44:43.922Z,21.50
2019-04-01T18:47:13.801Z,21.50
2019-04-01T18:49:43.852Z,21.50
2019-04-01T18:52:14.058Z,21.40
2019-04-01T18:54:44.064Z,21.40
2019-04-01T18:57:13.854Z,21.30
2019-04-01T18:59:44.233Z,21.30
2019-04-01T19:02:14.262Z,21.30
2019-04-01T19:04:44.162Z,21.20
2019-04-01T19:07:14.033Z,21.20
2019-04-01T19:09:44.376Z,21.20
2019-04-01T19:12:14.433Z,21.30
2019-04-01T19:14:44.325Z,21.30
2019-04-01T19:17:14.421Z,21.30
2019-04-01T19:19:44.824Z,21.40
2019-04-01T19:22:14.741Z,21.40
2019-04-01T19:24:44.725Z,21.50
2019-04-01T19:27:14.501Z,21.50
2019-04-01T19:29:45.425Z,21.60
2019-04-01T19:32:15.575Z,21.60
2019-04-01T19:34:45.486Z,21.60
2019-04-01T19:37:18.032Z,21.60
2019-04-01T19:39:47.193Z,21.60
2019-04-01T19:42:17.911Z,21.70
2019-04-01T19:44:48.383Z,21.60
2019-04-01T19:47:18.605Z,21.60
2019-04-01T19:49:48.899Z,21.60
2019-04-01T19:52:19.203Z,21.60
2019-04-01T19:54:49.435Z,21.60
2019-04-01T19:57:19.689Z,21.60
2019-04-01T19:59:49.963Z,21.50
2019-04-01T20:02:20.296Z,21.60
2019-04-01T20:04:51.338Z,21.50
2019-04-01T20:07:23.121Z,21.50
2019-04-01T20:09:54.065Z,21.50
2019-04-01T20:12:24.334Z,21.50
2019-04-01T20:14:54.208Z,21.40
2019-04-01T20:17:24.490Z,21.40
2019-04-01T20:19:54.906Z,21.40
2019-04-01T20:22:25.965Z,21.40
2019-04-01T20:24:56.069Z,21.40
2019-04-01T20:27:25.875Z,21.30
2019-04-01T20:29:55.831Z,21.30
2019-04-01T20:32:25.608Z,21.20
2019-04-01T20:34:57.085Z,21.20
2019-04-01T20:37:27.075Z,21.20
2019-04-01T20:39:56.985Z,21.20
2019-04-01T20:42:26.897Z,21.10
2019-04-01T20:44:56.701Z,21.10
2019-04-01T20:47:26.640Z,21.10
2019-04-01T20:49:56.485Z,21.00
2019-04-01T20:52:26.426Z,21.00
2019-04-01T20:54:56.267Z,20.90
2019-04-01T20:57:26.172Z,20.90
2019-04-01T20:59:56.136Z,20.90
2019-04-01T21:02:26.069Z,20.90
2019-04-01T21:04:55.987Z,20.90
2019-04-01T21:07:26.220Z,20.80
2019-04-01T21:09:56.053Z,20.80
2019-04-01T21:12:25.901Z,20.80
2019-04-01T21:14:56.156Z,20.70
2019-04-01T21:17:26.209Z,20.70
2019-04-01T21:19:56.101Z,20.70
2019-04-01T21:22:25.954Z,20.70
2019-04-01T21:24:55.662Z,20.60
2019-04-01T21:27:25.447Z,20.60
2019-04-01T21:29:55.310Z,20.60
2019-04-01T21:32:25.204Z,20.60
2019-04-01T21:34:55.054Z,20.50
2019-04-01T21:37:24.959Z,20.60
2019-04-01T21:39:54.742Z,20.60
2019-04-01T21:42:24.689Z,20.60
2019-04-01T21:44:54.562Z,20.70
2019-04-01T21:47:24.430Z,20.70
2019-04-01T21:49:54.411Z,20.80
2019-04-01T21:52:24.353Z,20.80
2019-04-01T21:54:54.078Z,20.90
2019-04-01T21:57:23.782Z,20.90
2019-04-01T21:59:54.813Z,21.00
2019-04-01T22:02:35.502Z,21.00
2019-04-01T22:04:56.233Z,21.10
2019-04-01T22:07:26.029Z,21.10
2019-04-01T22:09:55.766Z,21.20
2019-04-01T22:12:26.975Z,21.20
2019-04-01T22:14:57.034Z,21.20
2019-04-01T22:17:26.730Z,21.20
2019-04-01T22:19:56.498Z,21.30
2019-04-01T22:22:26.362Z,21.30
2019-04-01T22:24:56.226Z,21.30
2019-04-01T22:27:26.038Z,21.30
2019-04-01T22:29:55.818Z,21.30
2019-04-01T22:32:25.726Z,21.30
2019-04-01T22:34:55.575Z,21.30
2019-04-01T22:37:27.462Z,21.40
2019-04-01T22:39:56.905Z,21.30
2019-04-01T22:42:27.211Z,21.30
2019-04-01T22:44:57.539Z,21.30
2019-04-01T22:47:27.226Z,21.30
2019-04-01T22:49:57.079Z,21.20
2019-04-01T22:52:26.921Z,21.20
2019-04-01T22:54:56.694Z,21.20
2019-04-01T22:57:26.477Z,21.20
2019-04-01T22:59:56.325Z,21.10
2019-04-01T23:02:26.222Z,21.10
2019-04-01T23:04:56.087Z,21.10
2019-04-01T23:07:26.970Z,21.00
2019-04-01T23:09:57.976Z,21.00
2019-04-01T23:12:28.130Z,21.00
2019-04-01T23:14:57.977Z,20.90
2019-04-01T23:17:27.780Z,20.90
2019-04-01T23:19:57.569Z,20.90
2019-04-01T23:22:28.299Z,20.90
2019-04-01T23:24:59.037Z,20.80
2019-04-01T23:27:28.818Z,20.80
2019-04-01T23:29:58.726Z,20.80
2019-04-01T23:32:28.957Z,20.70
2019-04-01T23:34:58.878Z,20.70
2019-04-01T23:37:28.606Z,20.70
2019-04-01T23:39:58.324Z,20.70
2019-04-01T23:42:28.219Z,20.60
2019-04-01T23:44:58.351Z,20.60
2019-04-01T23:47:30.317Z,20.60
2019-04-01T23:49:59.621Z,20.60
2019-04-01T23:52:29.450Z,20.50
2019-04-01T23:55:00.026Z,20.50
2019-04-01T23:57:30.261Z,20.50
2019-04-01T23:59:59.971Z,20.60
